sensor_id;sensor_type;location;lat;lon;timestamp;pressure;altitude;pressure_sealevel;temperature;humidity
23574;BME280;11965;53.640;10.050;2022-12-20T00:00:28;101223.91;;;5.56;100.00
23574;BME280;11965;53.640;10.050;2022-12-20T00:02:55;101240.56;;;5.82;100.00
23574;BME280;11965;53.640;10.050;2022-12-20T00:05:22;101235.13;;;5.72;100.00
23574;BME280;11965;53.640;10.050;2022-12-20T00:07:49;101217.22;;;5.59;100.00
23574;BME280;11965;53.640;10.050;2022-12-20T00:10:16;101222.84;;;5.67;100.00
23574;BME280;11965;53.640;10.050;2022-12-20T00:12:44;101221.97;;;5.66;100.00
23574;BME280;11965;53.640;10.050;2022-12-20T00:15:11;101223.50;;;5.79;100.00
23574;BME280;11965;53.640;10.050;2022-12-20T00:17:38;101219.59;;;5.81;100.00
23574;BME280;11965;53.640;10.050;2022-12-20T00:20:06;101224.31;;;5.89;100.00
23574;BME280;11965;53.640;10.050;2022-12-20T00:22:33;101220.34;;;6.01;100.00
23574;BME280;11965;53.640;10.050;2022-12-20T00:25:00;101215.47;;;5.95;100.00
23574;BME280;11965;53.640;10.050;2022-12-20T00:27:27;101199.38;;;5.90;100.00
23574;BME280;11965;53.640;10.050;2022-12-20T00:29:56;101207.44;;;6.19;100.00
23574;BME280;11965;53.640;10.050;2022-12-20T00:32:23;101216.34;;;6.13;100.00
23574;BME280;11965;53.640;10.050;2022-12-20T00:34:50;101215.22;;;6.06;100.00
23574;BME280;11965;53.640;10.050;2022-12-20T00:37:17;101221.44;;;6.08;100.00
23574;BME280;11965;53.640;10.050;2022-12-20T00:39:44;101206.19;;;5.96;100.00
23574;BME280;11965;53.640;10.050;2022-12-20T00:42:11;101211.75;;;6.04;100.00
23574;BME280;11965;53.640;10.050;2022-12-20T00:44:38;101211.06;;;6.20;100.00
23574;BME280;11965;53.640;10.050;2022-12-20T00:47:06;101192.69;;;6.03;100.00
23574;BME280;11965;53.640;10.050;2022-12-20T00:49:33;101190.94;;;6.02;100.00
23574;BME280;11965;53.640;10.050;2022-12-20T00:52:00;101195.91;;;6.16;100.00
23574;BME280;11965;53.640;10.050;2022-12-20T00:54:27;101203.44;;;6.32;100.00
23574;BME280;11965;53.640;10.050;2022-12-20T00:56:54;101187.66;;;6.16;100.00
23574;BME280;11965;53.640;10.050;2022-12-20T00:59:21;101181.97;;;6.17;100.00
23574;BME280;11965;53.640;10.050;2022-12-20T01:01:50;101190.94;;;6.19;100.00
23574;BME280;11965;53.640;10.050;2022-12-20T01:04:20;101198.66;;;6.16;100.00
23574;BME280;11965;53.640;10.050;2022-12-20T01:06:47;101172.84;;;5.99;100.00
23574;BME280;11965;53.640;10.050;2022-12-20T01:09:14;101179.72;;;6.13;100.00
23574;BME280;11965;53.640;10.050;2022-12-20T01:11:41;101188.75;;;6.05;100.00
23574;BME280;11965;53.640;10.050;2022-12-20T01:14:11;101187.47;;;6.17;100.00
23574;BME280;11965;53.640;10.050;2022-12-20T01:16:41;101187.41;;;6.09;100.00
23574;BME280;11965;53.640;10.050;2022-12-20T01:19:10;101189.75;;;6.04;100.00
23574;BME280;11965;53.640;10.050;2022-12-20T01:21:40;101185.69;;;6.08;100.00
23574;BME280;11965;53.640;10.050;2022-12-20T01:24:09;101196.50;;;6.10;100.00
23574;BME280;11965;53.640;10.050;2022-12-20T01:26:36;101189.75;;;6.04;100.00
23574;BME280;11965;53.640;10.050;2022-12-20T01:29:03;101197.72;;;6.07;100.00
23574;BME280;11965;53.640;10.050;2022-12-20T01:31:30;101201.63;;;6.23;100.00
23574;BME280;11965;53.640;10.050;2022-12-20T01:33:59;101197.06;;;6.31;100.00
23574;BME280;11965;53.640;10.050;2022-12-20T01:36:29;101193.84;;;6.36;100.00
23574;BME280;11965;53.640;10.050;2022-12-20T01:38:59;101195.66;;;6.45;100.00
23574;BME280;11965;53.640;10.050;2022-12-20T01:41:29;101186.69;;;6.43;100.00
23574;BME280;11965;53.640;10.050;2022-12-20T01:43:58;101199.59;;;6.43;100.00
23574;BME280;11965;53.640;10.050;2022-12-20T01:46:28;101186.81;;;6.41;100.00
23574;BME280;11965;53.640;10.050;2022-12-20T01:49:00;101188.19;;;6.37;100.00
23574;BME280;11965;53.640;10.050;2022-12-20T01:51:31;101166.25;;;6.28;100.00
23574;BME280;11965;53.640;10.050;2022-12-20T01:54:05;101175.56;;;6.53;100.00
23574;BME280;11965;53.640;10.050;2022-12-20T01:56:35;101176.31;;;6.63;100.00
23574;BME280;11965;53.640;10.050;2022-12-20T01:59:03;101168.56;;;6.58;100.00
23574;BME280;11965;53.640;10.050;2022-12-20T02:01:31;101168.25;;;6.61;100.00
23574;BME280;11965;53.640;10.050;2022-12-20T02:03:58;101170.59;;;6.56;100.00
23574;BME280;11965;53.640;10.050;2022-12-20T02:06:26;101172.72;;;6.62;100.00
23574;BME280;11965;53.640;10.050;2022-12-20T02:08:57;101177.19;;;6.63;100.00
23574;BME280;11965;53.640;10.050;2022-12-20T02:11:54;101163.50;;;6.72;100.00
23574;BME280;11965;53.640;10.050;2022-12-20T02:14:35;101167.25;;;6.71;100.00
23574;BME280;11965;53.640;10.050;2022-12-20T02:17:16;101150.91;;;6.69;100.00
23574;BME280;11965;53.640;10.050;2022-12-20T02:23:15;101163.09;;;6.93;100.00
23574;BME280;11965;53.640;10.050;2022-12-20T02:26:03;101170.81;;;6.89;100.00
23574;BME280;11965;53.640;10.050;2022-12-20T02:28:55;101168.00;;;6.81;100.00
23574;BME280;11965;53.640;10.050;2022-12-20T02:31:36;101166.22;;;6.98;100.00
23574;BME280;11965;53.640;10.050;2022-12-20T02:34:09;101164.66;;;6.95;100.00
23574;BME280;11965;53.640;10.050;2022-12-20T02:36:36;101144.50;;;6.95;100.00
23574;BME280;11965;53.640;10.050;2022-12-20T02:39:04;101154.47;;;6.96;100.00
23574;BME280;11965;53.640;10.050;2022-12-20T02:41:37;101154.28;;;6.89;100.00
23574;BME280;11965;53.640;10.050;2022-12-20T02:44:12;101157.25;;;6.96;100.00
23574;BME280;11965;53.640;10.050;2022-12-20T02:47:02;101144.38;;;7.04;100.00
23574;BME280;11965;53.640;10.050;2022-12-20T02:49:34;101147.34;;;7.11;100.00
23574;BME280;11965;53.640;10.050;2022-12-20T02:52:05;101144.59;;;7.11;100.00
23574;BME280;11965;53.640;10.050;2022-12-20T02:54:35;101139.94;;;7.12;100.00
23574;BME280;11965;53.640;10.050;2022-12-20T02:57:10;101129.94;;;7.11;100.00
23574;BME280;11965;53.640;10.050;2022-12-20T02:59:46;101135.31;;;7.12;100.00
23574;BME280;11965;53.640;10.050;2022-12-20T03:02:17;101131.66;;;7.12;100.00
23574;BME280;11965;53.640;10.050;2022-12-20T03:04:47;101119.81;;;7.19;100.00
23574;BME280;11965;53.640;10.050;2022-12-20T03:07:14;101125.69;;;7.24;100.00
23574;BME280;11965;53.640;10.050;2022-12-20T03:09:43;101121.25;;;7.32;100.00
23574;BME280;11965;53.640;10.050;2022-12-20T03:12:14;101113.69;;;7.42;100.00
23574;BME280;11965;53.640;10.050;2022-12-20T03:14:42;101125.75;;;7.41;100.00
23574;BME280;11965;53.640;10.050;2022-12-20T03:17:11;101120.22;;;7.41;100.00
23574;BME280;11965;53.640;10.050;2022-12-20T03:19:39;101126.59;;;7.41;100.00
23574;BME280;11965;53.640;10.050;2022-12-20T03:22:06;101120.41;;;7.39;100.00
23574;BME280;11965;53.640;10.050;2022-12-20T03:24:33;101131.28;;;7.49;100.00
23574;BME280;11965;53.640;10.050;2022-12-20T03:27:05;101123.19;;;7.47;100.00
23574;BME280;11965;53.640;10.050;2022-12-20T03:29:32;101136.81;;;7.49;100.00
23574;BME280;11965;53.640;10.050;2022-12-20T03:31:59;101121.34;;;7.64;100.00
23574;BME280;11965;53.640;10.050;2022-12-20T03:34:26;101124.13;;;7.72;100.00
23574;BME280;11965;53.640;10.050;2022-12-20T03:36:54;101118.56;;;7.64;100.00
23574;BME280;11965;53.640;10.050;2022-12-20T03:39:21;101129.78;;;7.63;100.00
23574;BME280;11965;53.640;10.050;2022-12-20T03:41:51;101123.41;;;7.62;100.00
23574;BME280;11965;53.640;10.050;2022-12-20T03:44:18;101131.16;;;7.67;100.00
23574;BME280;11965;53.640;10.050;2022-12-20T03:46:45;101139.44;;;7.67;100.00
23574;BME280;11965;53.640;10.050;2022-12-20T03:49:12;101128.41;;;7.67;100.00
23574;BME280;11965;53.640;10.050;2022-12-20T03:51:45;101127.19;;;7.61;100.00
23574;BME280;11965;53.640;10.050;2022-12-20T03:54:13;101120.81;;;7.61;100.00
23574;BME280;11965;53.640;10.050;2022-12-20T03:57:06;101118.56;;;7.56;100.00
23574;BME280;11965;53.640;10.050;2022-12-20T03:59:33;101112.22;;;7.72;100.00
23574;BME280;11965;53.640;10.050;2022-12-20T04:02:03;101099.28;;;7.64;100.00
23574;BME280;11965;53.640;10.050;2022-12-20T04:04:30;101104.28;;;7.69;100.00
23574;BME280;11965;53.640;10.050;2022-12-20T04:06:57;101112.91;;;7.74;100.00
23574;BME280;11965;53.640;10.050;2022-12-20T04:09:26;101121.56;;;7.79;100.00
23574;BME280;11965;53.640;10.050;2022-12-20T04:12:00;101119.31;;;7.91;100.00
23574;BME280;11965;53.640;10.050;2022-12-20T04:14:29;101107.94;;;7.94;100.00
23574;BME280;11965;53.640;10.050;2022-12-20T04:16:56;101114.84;;;8.06;100.00
23574;BME280;11965;53.640;10.050;2022-12-20T04:19:23;101102.91;;;7.97;100.00
23574;BME280;11965;53.640;10.050;2022-12-20T04:21:50;101123.13;;;7.90;100.00
23574;BME280;11965;53.640;10.050;2022-12-20T04:24:20;101122.22;;;7.89;100.00
23574;BME280;11965;53.640;10.050;2022-12-20T04:27:06;101109.63;;;7.79;100.00
23574;BME280;11965;53.640;10.050;2022-12-20T04:29:33;101098.94;;;7.84;100.00
23574;BME280;11965;53.640;10.050;2022-12-20T04:32:02;101102.41;;;7.94;100.00
23574;BME280;11965;53.640;10.050;2022-12-20T04:34:28;101113.09;;;7.89;100.00
23574;BME280;11965;53.640;10.050;2022-12-20T04:36:56;101075.66;;;7.70;100.00
23574;BME280;11965;53.640;10.050;2022-12-20T04:39:35;101078.44;;;7.94;100.00
23574;BME280;11965;53.640;10.050;2022-12-20T04:42:18;101096.72;;;7.95;100.00
23574;BME280;11965;53.640;10.050;2022-12-20T04:44:45;101107.78;;;7.95;100.00
23574;BME280;11965;53.640;10.050;2022-12-20T04:47:16;101093.28;;;7.93;100.00
23574;BME280;11965;53.640;10.050;2022-12-20T04:49:43;101082.94;;;8.04;100.00
23574;BME280;11965;53.640;10.050;2022-12-20T04:52:09;101090.00;;;7.98;100.00
23574;BME280;11965;53.640;10.050;2022-12-20T04:54:54;101088.25;;;8.13;100.00
23574;BME280;11965;53.640;10.050;2022-12-20T04:57:27;101076.38;;;7.88;100.00
23574;BME280;11965;53.640;10.050;2022-12-20T04:59:53;101103.63;;;7.91;100.00
23574;BME280;11965;53.640;10.050;2022-12-20T05:02:20;101099.47;;;7.79;100.00
23574;BME280;11965;53.640;10.050;2022-12-20T05:04:54;101110.53;;;7.79;100.00
23574;BME280;11965;53.640;10.050;2022-12-20T05:07:21;101097.72;;;7.70;100.00
23574;BME280;11965;53.640;10.050;2022-12-20T05:09:52;101104.31;;;7.77;100.00
23574;BME280;11965;53.640;10.050;2022-12-20T05:12:19;101100.97;;;7.65;100.00
23574;BME280;11965;53.640;10.050;2022-12-20T05:14:47;101112.53;;;7.61;100.00
23574;BME280;11965;53.640;10.050;2022-12-20T05:17:17;101100.69;;;7.85;100.00
23574;BME280;11965;53.640;10.050;2022-12-20T05:19:44;101099.78;;;7.76;100.00
23574;BME280;11965;53.640;10.050;2022-12-20T05:22:13;101091.69;;;7.66;100.00
23574;BME280;11965;53.640;10.050;2022-12-20T05:25:04;101097.72;;;7.62;100.00
23574;BME280;11965;53.640;10.050;2022-12-20T05:27:50;101101.31;;;7.54;100.00
23574;BME280;11965;53.640;10.050;2022-12-20T05:30:19;101089.25;;;7.55;100.00
23574;BME280;11965;53.640;10.050;2022-12-20T05:32:47;101081.66;;;7.57;100.00
23574;BME280;11965;53.640;10.050;2022-12-20T05:35:14;101088.06;;;7.58;100.00
23574;BME280;11965;53.640;10.050;2022-12-20T05:37:42;101087.88;;;7.59;100.00
23574;BME280;11965;53.640;10.050;2022-12-20T05:40:15;101077.69;;;7.60;100.00
23574;BME280;11965;53.640;10.050;2022-12-20T05:42:42;101082.00;;;7.54;100.00
23574;BME280;11965;53.640;10.050;2022-12-20T05:45:10;101085.81;;;7.53;100.00
23574;BME280;11965;53.640;10.050;2022-12-20T05:47:48;101072.34;;;7.50;100.00
23574;BME280;11965;53.640;10.050;2022-12-20T05:50:15;101079.44;;;7.52;100.00
23574;BME280;11965;53.640;10.050;2022-12-20T05:53:02;101082.84;;;7.55;100.00
23574;BME280;11965;53.640;10.050;2022-12-20T05:55:29;101080.63;;;7.50;100.00
23574;BME280;11965;53.640;10.050;2022-12-20T05:57:56;101076.09;;;7.41;100.00
23574;BME280;11965;53.640;10.050;2022-12-20T06:00:39;101063.91;;;7.51;100.00
23574;BME280;11965;53.640;10.050;2022-12-20T06:03:10;101060.28;;;7.51;100.00
23574;BME280;11965;53.640;10.050;2022-12-20T06:05:39;101051.13;;;7.34;100.00
23574;BME280;11965;53.640;10.050;2022-12-20T06:08:06;101077.34;;;7.55;100.00
23574;BME280;11965;53.640;10.050;2022-12-20T06:10:34;101090.28;;;7.62;100.00
23574;BME280;11965;53.640;10.050;2022-12-20T06:13:03;101090.13;;;7.56;100.00
23574;BME280;11965;53.640;10.050;2022-12-20T06:15:30;101087.34;;;7.47;100.00
23574;BME280;11965;53.640;10.050;2022-12-20T06:17:59;101085.25;;;7.49;100.00
23574;BME280;11965;53.640;10.050;2022-12-20T06:20:27;101103.38;;;7.60;100.00
23574;BME280;11965;53.640;10.050;2022-12-20T06:22:56;101094.44;;;7.58;100.00
23574;BME280;11965;53.640;10.050;2022-12-20T06:25:26;101100.28;;;7.55;100.00
23574;BME280;11965;53.640;10.050;2022-12-20T06:27:54;101087.72;;;7.52;100.00
23574;BME280;11965;53.640;10.050;2022-12-20T06:30:21;101094.94;;;7.53;100.00
23574;BME280;11965;53.640;10.050;2022-12-20T06:33:04;101095.09;;;7.52;100.00
23574;BME280;11965;53.640;10.050;2022-12-20T06:35:32;101084.06;;;7.60;100.00
23574;BME280;11965;53.640;10.050;2022-12-20T06:37:59;101096.34;;;7.58;100.00
23574;BME280;11965;53.640;10.050;2022-12-20T06:40:29;101096.19;;;7.75;100.00
23574;BME280;11965;53.640;10.050;2022-12-20T06:42:59;101078.75;;;7.75;100.00
23574;BME280;11965;53.640;10.050;2022-12-20T06:45:26;101078.75;;;7.75;100.00
23574;BME280;11965;53.640;10.050;2022-12-20T06:47:56;101067.88;;;7.65;100.00
23574;BME280;11965;53.640;10.050;2022-12-20T06:50:23;101071.19;;;7.69;100.00
23574;BME280;11965;53.640;10.050;2022-12-20T06:52:51;101071.19;;;7.69;100.00
23574;BME280;11965;53.640;10.050;2022-12-20T06:55:18;101066.69;;;7.68;100.00
23574;BME280;11965;53.640;10.050;2022-12-20T06:57:46;101066.66;;;7.60;100.00
23574;BME280;11965;53.640;10.050;2022-12-20T07:00:14;101076.16;;;7.65;100.00
23574;BME280;11965;53.640;10.050;2022-12-20T07:02:41;101080.47;;;7.68;100.00
23574;BME280;11965;53.640;10.050;2022-12-20T07:05:09;101081.00;;;7.71;100.00
23574;BME280;11965;53.640;10.050;2022-12-20T07:07:36;101080.31;;;7.61;100.00
23574;BME280;11965;53.640;10.050;2022-12-20T07:10:06;101086.69;;;7.70;100.00
23574;BME280;11965;53.640;10.050;2022-12-20T07:12:33;101088.75;;;7.68;100.00
23574;BME280;11965;53.640;10.050;2022-12-20T07:15:00;101090.16;;;7.72;100.00
23574;BME280;11965;53.640;10.050;2022-12-20T07:17:27;101083.25;;;7.84;100.00
23574;BME280;11965;53.640;10.050;2022-12-20T07:19:54;101088.75;;;7.76;100.00
23574;BME280;11965;53.640;10.050;2022-12-20T07:22:21;101106.53;;;7.82;100.00
23574;BME280;11965;53.640;10.050;2022-12-20T07:24:48;101105.50;;;7.83;100.00
23574;BME280;11965;53.640;10.050;2022-12-20T07:27:16;101087.75;;;7.77;100.00
23574;BME280;11965;53.640;10.050;2022-12-20T07:29:43;101086.88;;;7.77;100.00
23574;BME280;11965;53.640;10.050;2022-12-20T07:32:11;101082.94;;;7.95;100.00
23574;BME280;11965;53.640;10.050;2022-12-20T07:34:38;101070.34;;;7.85;100.00
23574;BME280;11965;53.640;10.050;2022-12-20T07:37:05;101071.53;;;7.90;100.00
23574;BME280;11965;53.640;10.050;2022-12-20T07:39:33;101065.69;;;8.02;100.00
23574;BME280;11965;53.640;10.050;2022-12-20T07:42:00;101067.38;;;7.94;100.00
23574;BME280;11965;53.640;10.050;2022-12-20T07:44:41;101052.03;;;7.92;100.00
23574;BME280;11965;53.640;10.050;2022-12-20T07:47:08;101045.50;;;7.85;100.00
23574;BME280;11965;53.640;10.050;2022-12-20T07:49:35;101063.56;;;7.71;100.00
23574;BME280;11965;53.640;10.050;2022-12-20T07:52:04;101068.94;;;7.81;100.00
23574;BME280;11965;53.640;10.050;2022-12-20T07:54:37;101076.00;;;7.83;100.00
23574;BME280;11965;53.640;10.050;2022-12-20T07:57:12;101080.16;;;7.87;100.00
23574;BME280;11965;53.640;10.050;2022-12-20T07:59:47;101081.69;;;7.82;100.00
23574;BME280;11965;53.640;10.050;2022-12-20T08:02:26;101054.09;;;7.82;100.00
23574;BME280;11965;53.640;10.050;2022-12-20T08:04:55;101063.25;;;7.99;100.00
23574;BME280;11965;53.640;10.050;2022-12-20T08:07:23;101050.13;;;7.92;100.00
23574;BME280;11965;53.640;10.050;2022-12-20T08:09:50;101044.97;;;7.81;100.00
23574;BME280;11965;53.640;10.050;2022-12-20T08:12:18;101043.59;;;7.93;100.00
23574;BME280;11965;53.640;10.050;2022-12-20T08:14:47;101048.41;;;8.00;100.00
23574;BME280;11965;53.640;10.050;2022-12-20T08:17:16;101034.47;;;7.77;100.00
23574;BME280;11965;53.640;10.050;2022-12-20T08:19:43;101053.25;;;7.81;100.00
23574;BME280;11965;53.640;10.050;2022-12-20T08:22:10;101047.56;;;7.74;100.00
23574;BME280;11965;53.640;10.050;2022-12-20T08:24:37;101059.81;;;7.80;100.00
23574;BME280;11965;53.640;10.050;2022-12-20T08:27:04;101052.38;;;7.97;100.00
23574;BME280;11965;53.640;10.050;2022-12-20T08:29:31;101041.53;;;7.87;100.00
23574;BME280;11965;53.640;10.050;2022-12-20T08:31:59;101031.84;;;7.75;100.00
23574;BME280;11965;53.640;10.050;2022-12-20T08:34:26;101020.13;;;7.73;100.00
23574;BME280;11965;53.640;10.050;2022-12-20T08:36:53;101027.53;;;7.81;100.00
23574;BME280;11965;53.640;10.050;2022-12-20T08:39:20;101033.56;;;7.92;100.00
23574;BME280;11965;53.640;10.050;2022-12-20T08:41:47;101040.13;;;8.00;100.00
23574;BME280;11965;53.640;10.050;2022-12-20T08:44:14;101036.31;;;7.92;100.00
23574;BME280;11965;53.640;10.050;2022-12-20T08:46:41;101037.56;;;7.90;100.00
23574;BME280;11965;53.640;10.050;2022-12-20T08:49:09;101035.81;;;7.89;100.00
23574;BME280;11965;53.640;10.050;2022-12-20T08:51:36;101033.41;;;8.02;100.00
23574;BME280;11965;53.640;10.050;2022-12-20T08:54:03;101033.59;;;8.09;100.00
23574;BME280;11965;53.640;10.050;2022-12-20T08:56:30;101022.00;;;8.13;100.00
23574;BME280;11965;53.640;10.050;2022-12-20T08:58:57;101025.09;;;8.18;100.00
23574;BME280;11965;53.640;10.050;2022-12-20T09:01:24;101025.47;;;8.15;100.00
23574;BME280;11965;53.640;10.050;2022-12-20T09:03:54;101013.91;;;8.20;100.00
23574;BME280;11965;53.640;10.050;2022-12-20T09:06:22;101007.31;;;8.21;100.00
23574;BME280;11965;53.640;10.050;2022-12-20T09:08:49;101013.03;;;8.28;100.00
23574;BME280;11965;53.640;10.050;2022-12-20T09:11:19;101015.78;;;8.28;100.00
23574;BME280;11965;53.640;10.050;2022-12-20T09:13:48;101015.94;;;8.26;100.00
23574;BME280;11965;53.640;10.050;2022-12-20T09:16:17;101013.66;;;8.38;100.00
23574;BME280;11965;53.640;10.050;2022-12-20T09:18:47;101017.13;;;8.48;100.00
23574;BME280;11965;53.640;10.050;2022-12-20T09:21:14;101002.63;;;8.46;100.00
23574;BME280;11965;53.640;10.050;2022-12-20T09:23:43;101020.22;;;8.53;100.00
23574;BME280;11965;53.640;10.050;2022-12-20T09:26:13;101022.63;;;8.56;100.00
23574;BME280;11965;53.640;10.050;2022-12-20T09:28:41;101015.19;;;8.65;100.00
23574;BME280;11965;53.640;10.050;2022-12-20T09:31:11;101022.78;;;8.71;100.00
23574;BME280;11965;53.640;10.050;2022-12-20T09:33:38;101029.13;;;8.80;100.00
23574;BME280;11965;53.640;10.050;2022-12-20T09:36:06;101016.97;;;8.89;100.00
23574;BME280;11965;53.640;10.050;2022-12-20T09:38:36;101022.97;;;9.01;100.00
23574;BME280;11965;53.640;10.050;2022-12-20T09:41:07;101031.09;;;9.02;100.00
23574;BME280;11965;53.640;10.050;2022-12-20T09:43:40;101032.13;;;9.01;100.00
23574;BME280;11965;53.640;10.050;2022-12-20T09:46:13;101035.06;;;9.00;100.00
23574;BME280;11965;53.640;10.050;2022-12-20T09:48:42;101039.38;;;9.02;100.00
23574;BME280;11965;53.640;10.050;2022-12-20T09:51:21;101021.16;;;8.85;100.00
23574;BME280;11965;53.640;10.050;2022-12-20T09:54:01;101018.16;;;9.03;100.00
23574;BME280;11965;53.640;10.050;2022-12-20T09:56:35;101019.84;;;9.04;100.00
23574;BME280;11965;53.640;10.050;2022-12-20T09:59:05;101016.94;;;9.05;100.00
23574;BME280;11965;53.640;10.050;2022-12-20T10:01:34;101031.72;;;9.13;100.00
23574;BME280;11965;53.640;10.050;2022-12-20T10:04:03;101014.59;;;9.17;100.00
23574;BME280;11965;53.640;10.050;2022-12-20T10:06:46;101036.25;;;9.14;100.00
23574;BME280;11965;53.640;10.050;2022-12-20T10:09:33;101020.34;;;9.07;100.00
23574;BME280;11965;53.640;10.050;2022-12-20T10:12:16;101005.53;;;9.00;100.00
23574;BME280;11965;53.640;10.050;2022-12-20T10:15:00;101020.63;;;8.90;100.00
23574;BME280;11965;53.640;10.050;2022-12-20T10:17:41;101014.78;;;8.84;100.00
23574;BME280;11965;53.640;10.050;2022-12-20T10:20:29;100994.03;;;8.80;100.00
23574;BME280;11965;53.640;10.050;2022-12-20T10:23:06;101004.03;;;8.90;100.00
23574;BME280;11965;53.640;10.050;2022-12-20T10:25:35;100988.25;;;8.98;100.00
23574;BME280;11965;53.640;10.050;2022-12-20T10:28:12;100986.19;;;9.00;100.00
23574;BME280;11965;53.640;10.050;2022-12-20T10:30:40;100979.78;;;9.00;100.00
23574;BME280;11965;53.640;10.050;2022-12-20T10:33:17;100966.53;;;8.95;100.00
23574;BME280;11965;53.640;10.050;2022-12-20T10:35:45;100967.31;;;9.04;100.00
23574;BME280;11965;53.640;10.050;2022-12-20T10:38:13;100970.03;;;9.12;100.00
23574;BME280;11965;53.640;10.050;2022-12-20T10:40:44;100967.81;;;9.07;100.00
23574;BME280;11965;53.640;10.050;2022-12-20T10:43:19;100968.06;;;9.21;100.00
23574;BME280;11965;53.640;10.050;2022-12-20T10:45:56;100954.03;;;9.31;100.00
23574;BME280;11965;53.640;10.050;2022-12-20T10:48:30;100955.72;;;9.32;100.00
23574;BME280;11965;53.640;10.050;2022-12-20T10:51:00;100946.81;;;9.44;100.00
23574;BME280;11965;53.640;10.050;2022-12-20T10:53:28;100935.44;;;9.39;100.00
23574;BME280;11965;53.640;10.050;2022-12-20T10:56:12;100951.81;;;9.49;100.00
23574;BME280;11965;53.640;10.050;2022-12-20T10:58:53;100937.13;;;9.48;100.00
23574;BME280;11965;53.640;10.050;2022-12-20T11:01:24;100935.06;;;9.42;100.00
23574;BME280;11965;53.640;10.050;2022-12-20T11:03:57;100939.59;;;9.43;100.00
23574;BME280;11965;53.640;10.050;2022-12-20T11:06:29;100931.81;;;9.39;100.00
23574;BME280;11965;53.640;10.050;2022-12-20T11:09:21;100931.41;;;9.27;100.00
23574;BME280;11965;53.640;10.050;2022-12-20T11:12:06;100934.03;;;9.20;100.00
23574;BME280;11965;53.640;10.050;2022-12-20T11:14:36;100924.47;;;9.08;100.00
23574;BME280;11965;53.640;10.050;2022-12-20T11:17:13;100929.03;;;9.16;100.00
23574;BME280;11965;53.640;10.050;2022-12-20T11:20:12;100910.25;;;9.11;100.00
23574;BME280;11965;53.640;10.050;2022-12-20T11:22:50;100905.81;;;9.02;100.00
23574;BME280;11965;53.640;10.050;2022-12-20T11:25:35;100915.91;;;9.18;100.00
23574;BME280;11965;53.640;10.050;2022-12-20T11:28:21;100913.59;;;9.29;100.00
23574;BME280;11965;53.640;10.050;2022-12-20T11:31:15;100912.16;;;9.34;100.00
23574;BME280;11965;53.640;10.050;2022-12-20T11:34:07;100892.25;;;9.38;100.00
23574;BME280;11965;53.640;10.050;2022-12-20T11:36:53;100909.47;;;9.48;100.00
23574;BME280;11965;53.640;10.050;2022-12-20T11:39:31;100914.78;;;9.50;100.00
23574;BME280;11965;53.640;10.050;2022-12-20T11:42:09;100901.88;;;9.42;100.00
23574;BME280;11965;53.640;10.050;2022-12-20T11:44:51;100881.91;;;9.32;100.00
23574;BME280;11965;53.640;10.050;2022-12-20T11:47:35;100876.94;;;9.27;100.00
23574;BME280;11965;53.640;10.050;2022-12-20T11:50:30;100884.75;;;9.24;100.00
23574;BME280;11965;53.640;10.050;2022-12-20T11:53:04;100880.88;;;9.33;100.00
23574;BME280;11965;53.640;10.050;2022-12-20T11:55:38;100881.25;;;9.30;100.00
23574;BME280;11965;53.640;10.050;2022-12-20T11:58:15;100876.19;;;9.34;100.00
23574;BME280;11965;53.640;10.050;2022-12-20T12:00:52;100877.06;;;9.34;100.00
23574;BME280;11965;53.640;10.050;2022-12-20T12:03:27;100883.72;;;9.25;100.00
23574;BME280;11965;53.640;10.050;2022-12-20T12:05:59;100873.75;;;9.16;100.00
23574;BME280;11965;53.640;10.050;2022-12-20T12:08:34;100881.31;;;9.22;100.00
23574;BME280;11965;53.640;10.050;2022-12-20T12:11:11;100881.56;;;9.35;100.00
23574;BME280;11965;53.640;10.050;2022-12-20T12:13:42;100870.50;;;9.35;100.00
23574;BME280;11965;53.640;10.050;2022-12-20T12:16:11;100876.38;;;9.32;100.00
23574;BME280;11965;53.640;10.050;2022-12-20T12:18:44;100879.34;;;9.31;100.00
23574;BME280;11965;53.640;10.050;2022-12-20T12:21:18;100877.72;;;9.36;100.00
23574;BME280;11965;53.640;10.050;2022-12-20T12:23:58;100875.94;;;9.43;100.00
23574;BME280;11965;53.640;10.050;2022-12-20T12:26:34;100878.66;;;9.28;100.00
23574;BME280;11965;53.640;10.050;2022-12-20T12:29:05;100873.88;;;9.22;100.00
23574;BME280;11965;53.640;10.050;2022-12-20T12:31:42;100869.34;;;9.29;100.00
23574;BME280;11965;53.640;10.050;2022-12-20T12:34:28;100854.50;;;9.22;100.00
23574;BME280;11965;53.640;10.050;2022-12-20T12:37:30;100863.59;;;9.31;100.00
23574;BME280;11965;53.640;10.050;2022-12-20T12:43:37;100860.22;;;9.21;100.00
23574;BME280;11965;53.640;10.050;2022-12-20T12:46:12;100863.44;;;9.10;100.00
23574;BME280;11965;53.640;10.050;2022-12-20T12:48:47;100845.25;;;8.92;100.00
23574;BME280;11965;53.640;10.050;2022-12-20T12:51:27;100856.63;;;8.97;100.00
23574;BME280;11965;53.640;10.050;2022-12-20T12:54:03;100845.06;;;8.94;100.00
23574;BME280;11965;53.640;10.050;2022-12-20T12:56:40;100834.00;;;8.94;100.00
23574;BME280;11965;53.640;10.050;2022-12-20T12:59:21;100831.44;;;8.92;100.00
23574;BME280;11965;53.640;10.050;2022-12-20T13:01:51;100822.53;;;8.82;100.00
23574;BME280;11965;53.640;10.050;2022-12-20T13:04:25;100824.59;;;8.80;100.00
23574;BME280;11965;53.640;10.050;2022-12-20T13:07:23;100827.53;;;8.78;100.00
23574;BME280;11965;53.640;10.050;2022-12-20T13:09:51;100812.97;;;8.61;100.00